Addyston, Ohio
Current Conditions -  °F | °C
As of 3:52 PM on Sunday 21 Dec 2014 (Local Time) from KCVG Reporting Station
Broken Clouds Broken Clouds  
Wind Chill: 32°   Ceiling: 25000
Heat Index: 37°   Visibility: 10mi
Dew Point: 25°   Wind: 7mph
Humidity: 62%   Direction: 100°E
Pressure: 30.17"   Gusts: NA
Location:  39.14°N, 84.71°W
Report Text: KCVG 212052Z 10006KT 10SM BKN250 03/M04 A3017 RMK AO2 SLP222 T00281039 56022
Loading
Personal Weather Stations






























Interactive Weather Map New forecast layout! Learn more

10-Day Weather Forecast

Advertisements
Track Severe Weather on mobile